createdAt,value
2024-05-09T00:03:19.062Z,2.10
2024-05-09T00:07:45.277Z,2.22
2024-05-09T00:12:11.387Z,2.85
2024-05-09T00:16:39.860Z,2.15
2024-05-09T00:21:08.356Z,2.15
2024-05-09T00:25:34.079Z,2.40
2024-05-09T00:30:00.049Z,2.28
2024-05-09T00:34:28.440Z,2.40
2024-05-09T00:38:54.259Z,2.53
2024-05-09T00:43:19.935Z,2.22
2024-05-09T00:47:47.240Z,2.40
2024-05-09T00:52:15.865Z,2.80
2024-05-09T00:56:41.966Z,2.70
2024-05-09T01:01:11.200Z,2.42
2024-05-09T01:05:37.248Z,2.60
2024-05-09T01:10:11.498Z,2.45
2024-05-09T01:14:40.176Z,2.45
2024-05-09T01:19:07.520Z,2.15
2024-05-09T01:23:36.911Z,2.38
2024-05-09T01:28:02.727Z,2.60
2024-05-09T01:32:28.845Z,2.65
2024-05-09T01:36:54.486Z,2.33
2024-05-09T01:41:23.214Z,2.35
2024-05-09T01:45:48.840Z,2.33
2024-05-09T01:54:42.213Z,2.30
2024-05-09T01:59:10.900Z,2.38
2024-05-09T02:03:36.634Z,2.13
2024-05-09T02:08:02.642Z,2.30
2024-05-09T02:12:28.721Z,2.40
2024-05-09T02:16:57.465Z,2.10
2024-05-09T02:21:23.126Z,2.45
2024-05-09T02:25:49.696Z,2.60
2024-05-09T02:30:22.748Z,2.13
2024-05-09T02:34:59.717Z,2.45
2024-05-09T02:39:25.485Z,2.58
2024-05-09T02:43:51.704Z,2.60
2024-05-09T02:48:17.431Z,2.28
2024-05-09T02:52:46.147Z,2.25
2024-05-09T02:57:11.812Z,2.35
2024-05-09T03:01:38.070Z,2.40
2024-05-09T03:06:05.046Z,2.50
2024-05-09T03:10:36.590Z,2.63
2024-05-09T03:15:04.816Z,2.15
2024-05-09T03:19:30.983Z,2.05
2024-05-09T03:23:56.799Z,2.28
2024-05-09T03:28:25.538Z,2.00
2024-05-09T03:32:51.327Z,2.25
2024-05-09T03:37:17.841Z,2.50
2024-05-09T03:41:43.465Z,2.72
2024-05-09T03:46:12.020Z,2.40
2024-05-09T03:50:38.067Z,2.72
2024-05-09T03:55:04.177Z,2.53
2024-05-09T03:59:29.971Z,2.88
2024-05-09T04:03:58.711Z,2.30
2024-05-09T04:08:24.405Z,2.10
2024-05-09T04:12:50.456Z,2.63
2024-05-09T04:17:16.480Z,2.58
2024-05-09T04:21:45.192Z,2.50
2024-05-09T04:26:10.902Z,2.38
2024-05-09T04:30:40.083Z,2.13
2024-05-09T04:35:08.143Z,2.38
2024-05-09T04:39:36.714Z,2.50
2024-05-09T04:44:02.362Z,2.50
2024-05-09T04:48:28.625Z,2.35
2024-05-09T04:52:54.405Z,2.75
2024-05-09T04:57:22.967Z,2.17
2024-05-09T05:01:48.599Z,2.55
2024-05-09T05:06:14.222Z,2.17
2024-05-09T05:10:39.838Z,2.30
2024-05-09T05:15:08.910Z,2.60
2024-05-09T05:19:35.155Z,2.30
2024-05-09T05:24:01.127Z,2.58
2024-05-09T05:28:26.782Z,2.30
2024-05-09T05:32:56.333Z,2.60
2024-05-09T05:37:21.985Z,2.60
2024-05-09T05:41:47.839Z,2.22
2024-05-09T05:46:13.442Z,2.63
2024-05-09T05:50:42.019Z,2.42
2024-05-09T05:55:08.292Z,2.40
2024-05-09T05:59:34.349Z,2.47
2024-05-09T06:04:00.146Z,2.25
2024-05-09T06:08:30.428Z,2.60
2024-05-09T06:12:57.123Z,2.60
2024-05-09T06:17:22.844Z,2.50
2024-05-09T06:21:49.020Z,2.67
2024-05-09T06:26:17.637Z,2.20
2024-05-09T06:30:43.559Z,2.65
2024-05-09T06:35:09.946Z,2.58
2024-05-09T06:39:35.574Z,2.40
2024-05-09T06:44:04.465Z,2.35
2024-05-09T06:48:30.257Z,2.10
2024-05-09T06:52:56.468Z,2.13
2024-05-09T06:57:23.189Z,2.38
2024-05-09T07:01:52.021Z,2.00
2024-05-09T07:06:17.831Z,2.33
2024-05-09T07:10:44.540Z,2.47
2024-05-09T07:15:10.670Z,2.22
2024-05-09T07:19:39.381Z,1.88
2024-05-09T07:24:05.593Z,2.17
2024-05-09T07:28:31.495Z,2.50
2024-05-09T07:32:57.277Z,3.22
2024-05-09T07:37:25.948Z,2.60
2024-05-09T07:41:51.550Z,2.38
2024-05-09T07:47:14.231Z,2.20
2024-05-09T07:55:35.206Z,2.00
2024-05-09T08:00:00.829Z,2.33
2024-05-09T08:04:26.978Z,1.80
2024-05-09T08:08:53.225Z,2.30
2024-05-09T08:13:22.138Z,2.15
2024-05-09T08:17:47.857Z,2.08
2024-05-09T08:22:13.927Z,2.00
2024-05-09T08:26:40.053Z,2.10
2024-05-09T08:31:08.803Z,2.08
2024-05-09T08:35:34.886Z,2.05
2024-05-09T08:40:01.508Z,1.88
2024-05-09T08:44:27.183Z,2.00
2024-05-09T08:48:59.080Z,1.73
2024-05-09T08:53:24.806Z,1.80
2024-05-09T08:57:51.500Z,1.88
2024-05-09T09:02:17.615Z,1.98
2024-05-09T09:06:47.598Z,1.90
2024-05-09T09:11:13.819Z,1.92
2024-05-09T09:15:50.650Z,1.77
2024-05-09T09:20:23.225Z,1.63
2024-05-09T09:24:58.210Z,1.98
2024-05-09T09:29:24.470Z,1.90
2024-05-09T09:33:50.778Z,2.00
2024-05-09T09:38:21.486Z,1.88
2024-05-09T09:42:53.051Z,1.70
2024-05-09T09:47:19.912Z,2.00
2024-05-09T09:51:46.586Z,1.95
2024-05-09T09:56:14.157Z,1.77
2024-05-09T10:00:43.070Z,1.98
2024-05-09T10:05:10.169Z,2.17
2024-05-09T10:09:36.318Z,2.13
2024-05-09T10:14:02.474Z,1.75
2024-05-09T10:18:40.704Z,1.90
2024-05-09T10:23:07.463Z,2.00
2024-05-09T10:27:34.294Z,2.03
2024-05-09T10:32:03.718Z,2.05
2024-05-09T10:36:32.873Z,1.90
2024-05-09T10:41:00.087Z,1.90
2024-05-09T10:45:25.999Z,2.20
2024-05-09T10:49:52.834Z,1.75
2024-05-09T10:54:21.512Z,1.80
2024-05-09T10:58:48.138Z,2.15
2024-05-09T11:03:16.955Z,1.90
2024-05-09T11:07:42.670Z,1.80
2024-05-09T11:12:12.295Z,1.85
2024-05-09T11:16:38.008Z,2.22
2024-05-09T11:21:04.097Z,2.20
2024-05-09T11:25:33.087Z,2.00
2024-05-09T11:30:02.388Z,2.30
2024-05-09T11:34:29.542Z,2.17
2024-05-09T11:38:55.691Z,1.92
2024-05-09T11:43:21.410Z,2.28
2024-05-09T11:47:50.281Z,1.98
2024-05-09T11:52:16.043Z,2.25
2024-05-09T11:56:42.068Z,1.90
2024-05-09T12:01:08.034Z,2.00
2024-05-09T12:05:37.158Z,1.90
2024-05-09T12:10:04.677Z,2.10
2024-05-09T12:14:32.067Z,1.83
2024-05-09T12:18:58.893Z,2.10
2024-05-09T12:23:27.462Z,2.03
2024-05-09T12:27:53.219Z,2.00
2024-05-09T12:32:19.272Z,2.08
2024-05-09T12:36:45.348Z,2.03
2024-05-09T12:41:14.009Z,2.00
2024-05-09T12:45:40.427Z,1.83
2024-05-09T12:50:13.415Z,2.10
2024-05-09T12:54:44.804Z,1.92
2024-05-09T12:59:13.680Z,2.20
2024-05-09T13:03:39.459Z,1.90
2024-05-09T13:08:06.165Z,1.83
2024-05-09T13:12:31.739Z,1.67
2024-05-09T13:17:00.445Z,2.25
2024-05-09T13:21:26.057Z,2.17
2024-05-09T13:25:52.218Z,2.20
2024-05-09T13:30:26.068Z,1.92
2024-05-09T13:35:02.211Z,2.25
2024-05-09T13:39:28.168Z,2.20
2024-05-09T13:43:54.478Z,1.92
2024-05-09T13:48:20.259Z,1.95
2024-05-09T13:52:48.961Z,1.92
2024-05-09T13:57:14.622Z,1.63
2024-05-09T14:01:40.660Z,2.15
2024-05-09T14:06:08.747Z,1.90
2024-05-09T14:10:44.722Z,1.98
2024-05-09T14:15:11.338Z,1.98
2024-05-09T14:19:37.240Z,1.58
2024-05-09T14:24:03.719Z,1.60
2024-05-09T14:28:32.382Z,1.77
2024-05-09T14:32:58.114Z,1.50
2024-05-09T14:37:24.231Z,1.83
2024-05-09T14:41:50.280Z,1.80
2024-05-09T14:46:19.520Z,1.60
2024-05-09T14:50:45.545Z,1.55
2024-05-09T14:55:12.420Z,1.55
2024-05-09T14:59:38.071Z,1.55
2024-05-09T15:04:06.955Z,1.60
2024-05-09T15:08:32.676Z,1.80
2024-05-09T15:12:58.761Z,1.70
2024-05-09T15:17:24.551Z,1.70
2024-05-09T15:21:53.282Z,1.77
2024-05-09T15:26:19.297Z,1.75
2024-05-09T15:30:46.657Z,1.50
2024-05-09T15:35:13.324Z,1.60
2024-05-09T15:39:42.828Z,1.77
2024-05-09T15:44:08.830Z,1.77
2024-05-09T15:48:35.356Z,1.60
2024-05-09T15:53:01.295Z,1.65
2024-05-09T15:57:29.827Z,1.40
2024-05-09T16:01:56.203Z,1.35
2024-05-09T16:06:22.268Z,1.55
2024-05-09T16:10:49.704Z,1.48
2024-05-09T16:15:18.444Z,1.60
2024-05-09T16:19:44.023Z,1.80
2024-05-09T16:24:10.324Z,1.98
2024-05-09T16:28:36.790Z,2.00
2024-05-09T16:33:05.923Z,1.65
2024-05-09T16:37:31.815Z,1.80
2024-05-09T16:41:57.836Z,1.58
2024-05-09T16:46:24.309Z,1.98
2024-05-09T16:50:52.952Z,1.70
2024-05-09T16:55:19.322Z,1.67
2024-05-09T16:59:45.673Z,1.63
2024-05-09T17:04:11.524Z,1.88
2024-05-09T17:08:41.623Z,1.88
2024-05-09T17:13:08.386Z,1.70
2024-05-09T17:17:34.896Z,1.70
2024-05-09T17:22:00.642Z,1.70
2024-05-09T17:26:29.391Z,1.60
2024-05-09T17:30:54.978Z,1.85
2024-05-09T17:35:20.916Z,2.00
2024-05-09T17:39:46.918Z,1.77
2024-05-09T17:44:15.727Z,2.10
2024-05-09T17:48:42.217Z,1.95
2024-05-09T17:53:08.776Z,1.85
2024-05-09T17:57:34.536Z,1.92
2024-05-09T18:02:03.356Z,1.60
2024-05-09T18:06:29.040Z,1.92
2024-05-09T18:10:55.734Z,1.77
2024-05-09T18:15:22.797Z,1.55
2024-05-09T18:19:51.472Z,1.73
2024-05-09T18:24:17.071Z,2.15
2024-05-09T18:28:43.205Z,1.83
2024-05-09T18:33:10.006Z,1.55
2024-05-09T18:37:39.158Z,1.90
2024-05-09T18:42:04.756Z,1.83
2024-05-09T18:46:30.937Z,1.88
2024-05-09T18:50:57.103Z,3.00
2024-05-09T18:55:25.636Z,2.25
2024-05-09T18:59:51.221Z,2.40
2024-05-09T19:04:19.093Z,1.92
2024-05-09T19:08:45.165Z,1.90
2024-05-09T19:13:14.624Z,2.45
2024-05-09T19:17:41.158Z,2.20
2024-05-09T19:22:10.303Z,2.05
2024-05-09T19:26:35.995Z,1.90
2024-05-09T19:31:05.017Z,1.77
2024-05-09T19:35:30.716Z,2.25
2024-05-09T19:39:56.655Z,1.70
2024-05-09T19:44:22.594Z,1.80
2024-05-09T19:48:51.456Z,1.85
2024-05-09T19:53:18.187Z,1.80
2024-05-09T19:57:44.922Z,1.80
2024-05-09T20:02:10.612Z,1.70
2024-05-09T20:06:40.788Z,1.52
2024-05-09T20:11:06.576Z,2.00
2024-05-09T20:15:32.615Z,2.05
2024-05-09T20:19:58.281Z,1.70
2024-05-09T20:24:26.845Z,1.83
2024-05-09T20:28:52.417Z,2.17
2024-05-09T20:33:18.479Z,1.80
2024-05-09T20:37:44.188Z,1.70
2024-05-09T20:42:12.778Z,2.17
2024-05-09T20:46:38.707Z,2.10
2024-05-09T20:51:04.621Z,1.90
2024-05-09T20:55:30.669Z,2.00
2024-05-09T20:59:59.337Z,2.05
2024-05-09T21:04:25.110Z,2.25
2024-05-09T21:08:51.137Z,2.05
2024-05-09T21:13:16.767Z,2.20
2024-05-09T21:17:45.503Z,2.20
2024-05-09T21:22:11.182Z,2.28
2024-05-09T21:26:37.943Z,1.92
2024-05-09T21:31:03.563Z,2.20
2024-05-09T21:35:32.224Z,2.03
2024-05-09T21:39:57.833Z,2.30
2024-05-09T21:44:23.849Z,2.05
2024-05-09T21:48:49.869Z,2.20
2024-05-09T21:53:18.465Z,2.42
2024-05-09T21:57:44.431Z,2.50
2024-05-09T22:02:10.568Z,2.50
2024-05-09T22:06:36.216Z,2.38
2024-05-09T22:11:04.956Z,2.35
2024-05-09T22:15:30.632Z,2.55
2024-05-09T22:19:57.007Z,2.13
2024-05-09T22:24:22.652Z,2.55
2024-05-09T22:28:51.362Z,2.40
2024-05-09T22:33:17.802Z,2.47
2024-05-09T22:37:43.986Z,2.55
2024-05-09T22:42:09.731Z,2.58
2024-05-09T22:46:38.423Z,2.28
2024-05-09T22:51:04.196Z,2.53
2024-05-09T22:55:30.610Z,2.65
2024-05-09T22:59:56.289Z,2.28
2024-05-09T23:04:25.047Z,2.20
2024-05-09T23:08:50.716Z,2.47
2024-05-09T23:13:16.820Z,2.50
2024-05-09T23:17:42.596Z,2.28
2024-05-09T23:22:11.432Z,2.60
2024-05-09T23:26:37.347Z,2.25
2024-05-09T23:31:03.396Z,2.50
2024-05-09T23:35:29.315Z,2.45
2024-05-09T23:39:57.937Z,2.55
2024-05-09T23:44:23.622Z,2.80
2024-05-09T23:48:49.598Z,2.30
2024-05-09T23:53:15.298Z,2.83
2024-05-09T23:57:44.736Z,2.45
